Latest Weather Observations for Richmond

IDQ60801

Issued at 6:32 am EST Sunday 25 September 2016 (issued every 30 minutes, with the page automatically refreshed every 10 minutes)

About weather observations | Map of weather stations | Latest weather observations for QLD | Other Formats
Station Details ID: 030161 Name: RICHMOND AIRPORT Lat: -20.70 Lon: 143.12 Height: 206.3 m
Data from the previous 72 hours. | See also: Recent months at Richmond
Date/Time
EST
Temp
°C
App
Temp
°C
Dew
Point
°C
Rel
Hum
%
Delta-T
°C
Wind Press
QNH
hPa
Press
MSL
hPa
Rain since
9am
mm
Dir  Spd
km/h
Gust
km/h
Spd
kts
Gust
kts
25/06:00am 16.7 13.4 7.9 56 4.5 SE 15 17 8 9 1011.7 1010.7 0.0
25/05:30am 17.0 13.8 6.8 51 5.1 SE 13 15 7 8 1011.3 1010.3 0.0
25/05:00am 16.5 12.5 6.6 52 4.9 SSE 17 19 9 10 1010.8 1009.8 0.0
25/04:30am 16.6 12.5 4.3 44 5.8 SSW 15 17 8 9 1010.5 1009.5 0.0
25/04:00am 19.7 15.1 3.8 35 7.6 SSW 17 24 9 13 1010.3 1009.3 0.0
25/03:41am 22.1 17.1 6.3 36 8.1 ESE 22 48 12 26 1009.3 1008.4 0.0
25/03:38am 17.4 13.0 4.7 43 6.1 ENE 17 48 9 26 1009.9 1008.9 0.0
25/03:30am 18.2 14.9 4.7 41 6.5 ENE 11 13 6 7 1008.8 1007.8 0.0
25/03:00am 17.7 14.0 4.6 42 6.3 ENE 13 15 7 8 1008.9 1007.9 0.0
25/02:30am 18.3 14.7 5.2 42 6.4 ENE 13 15 7 8 1009.0 1008.0 0.0
25/02:00am 18.2 14.9 4.7 41 6.5 ENE 11 13 6 7 1009.1 1008.2 0.0
25/01:30am 17.6 14.0 5.2 44 6.0 ENE 13 15 7 8 1009.0 1008.0 0.0
25/01:00am 19.7 16.6 3.4 34 7.8 ESE 9 11 5 6 1009.5 1008.5 0.0
25/12:30am 20.4 17.7 3.6 33 8.1 ESE 7 11 4 6 1009.8 1008.8 0.0
25/12:00am 20.2 17.1 3.4 33 8.0 SE 9 11 5 6 1009.9 1008.9 0.0
 
Date/Time
EST
Temp
°C
App
Temp
°C
Dew
Point
°C
Rel
Hum
%
Delta-T
°C
Wind Press
QNH
hPa
Press
MSL
hPa
Rain since
9am
mm
Dir  Spd
km/h
Gust
km/h
Spd
kts
Gust
kts
24/11:30pm 20.8 17.7 3.5 32 8.3 SE 9 11 5 6 1010.0 1009.0 0.0
24/11:00pm 20.8 16.9 3.5 32 8.3 SE 13 13 7 7 1010.1 1009.1 0.0
24/10:30pm 20.4 16.5 3.6 33 8.1 SSE 13 13 7 7 1010.2 1009.2 0.0
24/10:00pm 20.0 15.7 3.3 33 8.0 S 15 17 8 9 1010.1 1009.1 0.0
24/09:30pm 21.7 17.8 3.4 30 8.8 S 13 15 7 8 1010.0 1009.0 0.0
24/09:00pm 22.1 18.6 3.7 30 9.0 SSW 11 13 6 7 1009.9 1008.9 0.0
24/08:30pm 23.6 20.0 3.0 26 10.0 SSW 11 13 6 7 1009.7 1008.7 0.0
24/08:00pm 24.8 21.3 3.5 25 10.6 SSW 11 11 6 6 1009.2 1008.3 0.0
24/07:30pm 24.8 20.8 2.9 24 10.7 SSW 13 17 7 9 1008.8 1007.8 0.0
24/07:00pm 26.3 22.3 2.9 22 11.6 SW 13 15 7 8 1008.4 1007.4 0.0
24/06:30pm 27.5 23.1 2.6 20 12.3 SW 15 17 8 9 1008.1 1007.1 0.0
24/06:00pm 31.4 27.0 2.6 16 14.7 SW 15 19 8 10 1007.8 1006.8 0.0
24/05:30pm 33.2 28.3 2.1 14 15.9 W 17 22 9 12 1007.5 1006.5 0.0
24/05:00pm 34.1 29.3 2.8 14 16.3 W 17 26 9 14 1007.3 1006.3 0.0
24/04:30pm 34.3 28.6 3.0 14 16.3 W 22 28 12 15 1007.2 1006.2 0.0
24/04:00pm 34.6 29.3 3.2 14 16.5 WSW 20 28 11 15 1007.1 1006.1 0.0
24/03:30pm 34.5 29.2 3.1 14 16.4 W 20 30 11 16 1007.1 1006.1 0.0
24/03:00pm 34.6 28.8 4.2 15 16.2 WSW 24 37 13 20 1007.4 1006.4 0.0
24/02:30pm 35.0 29.8 5.4 16 16.1 WNW 22 37 12 20 1007.8 1006.8 0.0
24/02:00pm 34.8 29.9 5.3 16 16.0 NW 20 32 11 17 1008.2 1007.2 0.0
24/01:30pm 34.5 28.8 5.0 16 15.9 WNW 24 37 13 20 1008.7 1007.7 0.0
24/01:00pm 34.1 29.1 6.4 18 15.2 NW 22 35 12 19 1009.1 1008.2 0.0
24/12:30pm 33.5 28.7 7.5 20 14.5 WNW 22 33 12 18 1009.7 1008.7 0.0
24/12:00pm 32.4 27.2 7.3 21 13.9 NNW 24 32 13 17 1010.1 1009.1 0.0
24/11:30am 31.4 26.8 9.6 26 12.4 N 24 33 13 18 1010.4 1009.4 0.0
24/11:00am 29.7 26.5 11.2 31 10.7 N 19 26 10 14 1011.1 1010.1 0.0
24/10:30am 28.9 25.7 11.9 35 9.9 N 20 28 11 15 1011.5 1010.5 0.0
24/10:00am 27.1 24.3 9.9 34 9.7 NNE 15 22 8 12 1011.8 1010.8 0.0
24/09:30am 25.2 22.5 10.3 39 8.3 NE 15 20 8 11 1011.8 1010.8 0.0
24/09:00am 23.2 20.3 9.6 42 7.5 NE 15 19 8 10 1012.2 1011.2 0.0
24/08:30am 21.3 18.7 9.2 46 6.5 ENE 13 19 7 10 1012.4 1011.4 0.0
24/08:00am 19.2 17.1 9.7 54 5.1 ENE 11 17 6 9 1012.2 1011.2 0.0
24/07:30am 16.4 14.1 8.9 61 3.9 ENE 11 17 6 9 1012.2 1011.2 0.0
24/07:00am 14.0 11.6 8.6 70 2.7 E 11 15 6 8 1011.9 1010.9 0.0
24/06:30am 12.4 9.4 7.9 74 2.2 E 13 15 7 8 1011.4 1010.4 0.0
24/06:00am 11.7 9.0 7.2 74 2.2 ESE 11 13 6 7 1011.2 1010.2 0.0
24/05:30am 11.2 9.3 7.5 78 1.8 SE 7 11 4 6 1011.0 1010.0 0.0
24/05:00am 10.8 8.3 6.4 74 2.1 SE 9 11 5 6 1010.6 1009.6 0.0
24/04:30am 12.8 10.0 7.0 68 2.8 SSE 11 13 6 7 1010.6 1009.6 0.0
24/04:00am 14.6 10.8 7.4 62 3.6 ESE 17 20 9 11 1010.4 1009.4 0.0
24/03:30am 14.2 11.2 7.9 66 3.2 ESE 13 19 7 10 1010.7 1009.7 0.0
24/03:00am 13.0 10.2 7.0 67 2.9 ESE 11 13 6 7 1010.9 1009.9 0.0
24/02:30am 13.4 10.6 7.0 65 3.1 SE 11 13 6 7 1011.1 1010.1 0.0
24/02:00am 13.8 10.6 6.7 62 3.5 SE 13 13 7 7 1011.2 1010.2 0.0
24/01:30am 13.9 10.6 6.5 61 3.6 SE 13 15 7 8 1011.4 1010.4 0.0
24/01:00am 14.6 11.7 6.7 59 3.9 SE 11 13 6 7 1011.7 1010.7 0.0
24/12:30am 14.2 10.8 6.1 58 3.9 SSE 13 19 7 10 1011.7 1010.7 0.0
24/12:00am 15.7 12.4 6.4 54 4.6 SE 13 17 7 9 1011.5 1010.5 0.0
 
Date/Time
EST
Temp
°C
App
Temp
°C
Dew
Point
°C
Rel
Hum
%
Delta-T
°C
Wind Press
QNH
hPa
Press
MSL
hPa
Rain since
9am
mm
Dir  Spd
km/h
Gust
km/h
Spd
kts
Gust
kts
23/11:30pm 15.9 12.2 6.3 53 4.7 SSE 15 19 8 10 1011.4 1010.4 0.0
23/11:00pm 15.8 12.1 6.3 53 4.7 SSE 15 17 8 9 1011.4 1010.4 0.0
23/10:30pm 17.0 13.0 6.5 50 5.2 SSE 17 20 9 11 1011.5 1010.5 0.0
23/10:00pm 17.0 13.3 6.2 49 5.3 SSE 15 17 8 9 1011.5 1010.5 0.0
23/09:30pm 17.7 13.5 5.6 45 5.9 SSE 17 20 9 11 1011.3 1010.3 0.0
23/09:00pm 19.2 14.8 4.9 39 7.0 SSE 17 20 9 11 1011.1 1010.1 0.0
23/08:30pm 20.6 15.8 4.6 35 7.9 S 19 22 10 12 1010.9 1009.9 0.0
23/08:00pm 21.1 16.3 4.6 34 8.1 S 19 20 10 11 1010.6 1009.6 0.0
23/07:30pm 22.1 17.6 4.2 31 8.8 S 17 19 9 10 1010.5 1009.5 0.0
23/07:00pm 23.4 18.5 3.9 28 9.6 SW 19 22 10 12 1010.2 1009.2 0.0
23/06:30pm 24.7 20.8 3.4 25 10.5 SW 13 15 7 8 1009.8 1008.8 0.0
23/06:00pm 28.1 23.6 2.3 19 12.8 SSW 15 19 8 10 1009.6 1008.6 0.0
23/05:30pm 29.8 26.2 2.9 18 13.6 WSW 11 20 6 11 1009.3 1008.4 0.0
23/05:00pm 30.5 27.6 2.7 17 14.1 SW 7 11 4 6 1009.1 1008.2 0.0
23/04:30pm 30.4 27.3 3.4 18 13.8 WNW 9 19 5 10 1008.9 1007.9 0.0
23/04:00pm 30.5 27.0 3.5 18 13.9 SW 11 20 6 11 1008.8 1007.8 0.0
23/03:30pm 30.1 26.7 4.0 19 13.5 SSW 11 20 6 11 1009.0 1008.0 0.0
23/03:00pm 29.9 27.4 4.5 20 13.2 SW 7 13 4 7 1009.3 1008.4 0.0
23/02:30pm 30.0 27.0 6.0 22 12.8 SW 11 20 6 11 1009.9 1008.9 0.0
23/02:00pm 29.4 26.4 6.1 23 12.4 NNE 11 19 6 10 1010.4 1009.4 0.0
23/01:30pm 28.5 26.0 6.6 25 11.7 NNE 9 15 5 8 1010.9 1009.9 0.0
23/01:00pm 28.2 26.3 7.4 27 11.3 SE 7 13 4 7 1011.4 1010.4 0.0
23/12:30pm 28.1 25.0 7.4 27 11.2 SSE 13 20 7 11 1012.0 1011.0 0.0
23/12:00pm 26.5 24.0 6.5 28 10.6 S 9 19 5 10 1012.8 1011.8 0.0
23/11:30am 26.5 23.3 7.0 29 10.4 SE 13 20 7 11 1013.4 1012.5 0.0
23/11:00am 25.5 22.6 8.1 33 9.4 ESE 13 17 7 9 1013.9 1013.0 0.0
23/10:30am 24.1 20.6 7.3 34 8.9 SE 15 22 8 12 1014.5 1013.5 0.0
23/10:00am 23.2 19.8 7.7 37 8.2 SE 15 24 8 13 1014.9 1013.9 0.0
23/09:30am 22.3 18.1 8.1 40 7.5 ESE 20 28 11 15 1015.1 1014.1 0.0
23/09:00am 20.9 16.1 7.5 42 7.0 ESE 22 30 12 16 1015.3 1014.3 0.0
23/08:30am 19.5 15.3 8.2 48 5.9 ESE 20 30 11 16 1015.4 1014.4 0.0
23/08:00am 17.3 14.2 9.0 58 4.3 ESE 15 19 8 10 1015.5 1014.5 0.0
23/07:30am 14.7 12.6 9.7 72 2.6 SE 11 17 6 9 1015.1 1014.1 0.0
23/07:00am 10.1 7.7 8.5 90 0.8 SE 11 11 6 6 1014.7 1013.7 0.0
23/06:30am 7.5 4.6 6.4 93 0.5 SSE 11 13 6 7 1014.6 1013.6 0.0
23/06:00am 7.5 4.9 6.0 90 0.7 SE 9 9 5 5 1014.2 1013.3 0.0
23/05:30am 8.0 5.4 6.0 87 0.9 SE 9 11 5 6 1014.1 1013.2 0.0
23/05:00am 9.2 7.0 6.3 82 1.4 ESE 7 7 4 4 1013.8 1012.9 0.0
23/04:30am 11.0 8.5 6.7 75 2.1 E 9 11 5 6 1013.6 1012.7 0.0
23/04:00am 11.5 8.7 7.0 74 2.2 E 11 13 6 7 1013.6 1012.7 0.0
23/03:30am 10.6 8.5 6.7 77 1.9 ESE 7 9 4 5 1013.7 1012.8 0.0
23/03:00am 11.8 8.9 6.5 70 2.5 E 11 13 6 7 1013.9 1013.0 0.0
23/02:30am 11.6 9.2 6.9 73 2.3 ESE 9 11 5 6 1014.2 1013.3 0.0
23/02:00am 11.9 9.8 6.6 70 2.5 ESE 7 9 4 5 1014.5 1013.5 0.0
23/01:30am 13.0 10.5 6.6 65 3.1 ESE 9 11 5 6 1014.8 1013.8 0.0
23/01:00am 13.1 10.2 6.5 64 3.2 SE 11 13 6 7 1015.1 1014.1 0.0
23/12:30am 13.8 10.9 6.7 62 3.5 ESE 11 11 6 6 1015.3 1014.3 0.0
23/12:00am 13.7 10.1 6.8 63 3.4 SE 15 17 8 9 1015.3 1014.3 0.0
 
Date/Time
EST
Temp
°C
App
Temp
°C
Dew
Point
°C
Rel
Hum
%
Delta-T
°C
Wind Press
QNH
hPa
Press
MSL
hPa
Rain since
9am
mm
Dir  Spd
km/h
Gust
km/h
Spd
kts
Gust
kts
22/11:30pm 13.7 11.0 7.5 66 3.1 SSE 11 13 6 7 1015.3 1014.3 0.0
22/11:00pm 13.5 10.5 7.5 67 3.0 SSE 13 15 7 8 1015.4 1014.4 0.0
22/10:30pm 14.3 11.3 7.8 65 3.3 SSE 13 15 7 8 1015.4 1014.4 0.0
22/10:00pm 15.3 12.3 7.6 60 3.9 SSE 13 15 7 8 1015.4 1014.4 0.0
22/09:30pm 16.8 13.4 7.7 55 4.6 S 15 19 8 10 1015.4 1014.4 0.0
22/09:00pm 18.5 14.4 7.9 50 5.5 S 19 24 10 13 1015.2 1014.2 0.0
22/08:30pm 19.5 15.4 8.5 49 5.8 SSW 20 28 11 15 1015.3 1014.3 0.0
22/08:00pm 20.1 16.6 8.8 48 6.0 S 17 22 9 12 1014.9 1013.9 0.0
22/07:30pm 21.3 17.5 8.9 45 6.6 SSW 19 22 10 12 1014.5 1013.5 0.0
22/07:00pm 22.8 19.1 9.6 43 7.2 SSW 19 26 10 14 1014.0 1013.1 0.0
22/06:30pm 23.8 20.7 9.0 39 8.0 SSW 15 19 8 10 1013.6 1012.7 0.0
22/06:00pm 26.0 22.1 8.5 33 9.5 SSW 19 24 10 13 1013.3 1012.3 0.0
22/05:30pm 27.0 23.7 9.4 33 9.8 SSW 17 28 9 15 1013.0 1012.0 0.0
22/05:00pm 27.9 24.6 9.7 32 10.2 SW 17 24 9 13 1012.8 1011.8 0.0
22/04:30pm 28.4 25.1 9.6 31 10.6 SSW 17 26 9 14 1012.7 1011.7 0.0
22/04:00pm 28.3 24.9 9.1 30 10.7 SW 17 26 9 14 1012.7 1011.7 0.0
22/03:30pm 28.3 25.0 9.6 31 10.5 SSW 17 26 9 14 1012.8 1011.8 0.0
22/03:00pm 28.3 26.5 10.9 34 10.0 S 11 30 6 16 1013.0 1012.0 0.0
22/02:30pm 27.9 25.0 11.0 35 9.7 SSW 17 30 9 16 1013.4 1012.5 0.0
22/02:00pm 27.0 25.7 11.1 37 9.1 S 9 20 5 11 1013.9 1013.0 0.0
22/01:30pm 26.4 25.0 12.1 41 8.3 SSW 11 19 6 10 1014.5 1013.5 0.0
22/01:00pm 26.3 24.1 12.0 41 8.3 S 15 26 8 14 1014.9 1013.9 0.0
22/12:30pm 25.1 23.3 10.9 41 8.0 SE 11 19 6 10 1015.3 1014.3 0.0
22/12:00pm 25.4 22.6 11.2 41 8.1 SE 17 26 9 14 1015.9 1014.9 0.0
22/11:30am 24.1 21.1 10.7 43 7.5 ESE 17 22 9 12 1016.5 1015.5 0.0
22/11:00am 23.5 19.4 10.2 43 7.4 SE 22 32 12 17 1017.0 1016.0 0.0
22/10:30am 22.6 18.6 10.4 46 6.8 SE 22 30 12 16 1017.5 1016.5 0.0
22/10:00am 21.9 17.8 10.1 47 6.5 ESE 22 30 12 16 1017.9 1017.0 0.0
22/09:30am 20.6 15.9 9.2 48 6.1 SE 24 35 13 19 1018.2 1017.3 0.0
22/09:00am 19.4 15.3 10.1 55 5.0 SE 22 32 12 17 1018.3 1017.4 0.0
22/08:30am 18.4 14.4 10.5 60 4.3 SE 22 30 12 16 1018.4 1017.5 0.0
22/08:00am 16.6 12.6 10.5 67 3.3 SE 22 28 12 15 1018.3 1017.4 0.0
22/07:30am 16.0 12.7 11.0 72 2.7 SSE 19 24 10 13 1017.9 1017.0 0.0
22/07:00am 15.6 12.2 11.2 75 2.4 SSE 20 24 11 13 1017.6 1016.7 0.0

Other Formats:

Comma delimited format used in spreadsheet applications
http://www.bom.gov.au/fwo/IDQ60801/IDQ60801.94341.axf

JavaScript Object Notation format (JSON) in row-major order
http://www.bom.gov.au/fwo/IDQ60801/IDQ60801.94341.json